Friday, April 18, 2014, 1:30 AM EDT
Back to Local

KCXY, Harrisburg Capital City

Location: New Cumberland, PA, United States Lat: 40.217
Local Time: 1:30 AM EDT ( 5:30 GMT) Lon: -76.85
Time Zone: US/Eastern Elev: 347 ft

Show me the last for .
Show Coded

Time T Td Feel RH Dir Speed Gust Alt SLP Vis Weather Sky Remarks
2014-04-18 00:56 40 29 37 64 Variable 5 - 30.60 30.61 10 CLR 24-hr Min Temp (1am): 32.0°F
24-hr Max Temp (1am): 54.0°F
2014-04-17 23:56 42 29 35 59 130° 14 - 30.58 30.59 10 CLR None
2014-04-17 22:56 45 32 39 60 140° 14 - 30.56 30.57 10 BKN035 None
2014-04-17 21:56 47 31 41 53 140° 13 - 30.56 30.57 10 CLR None
2014-04-17 20:56 48 30 44 49 150° 9 - 30.55 30.56 10 CLR None
2014-04-17 19:56 50 29 46 43 130° 9 - 30.54 30.55 10 CLR 6-hr Min Temp (8pm): 50.0°F
6-hr Max Temp (8pm): 54.0°F
2014-04-17 18:56 52 30 - 42 110° 10 - 30.54 30.55 10 CLR None
2014-04-17 17:56 53 30 - 41 130° 10 - 30.54 30.55 10 CLR None
2014-04-17 16:56 53 31 - 42 90° 13 - 30.56 30.57 10 CLR None
2014-04-17 15:56 54 32 - 43 100° 16 22 30.56 30.57 10 CLR None
2014-04-17 14:56 52 31 - 44 100° 15 22 30.59 30.60 10 CLR None
2014-04-17 13:56 52 31 - 44 100° 14 - 30.61 30.62 10 CLR 6-hr Min Temp (2pm): 36.0°F
6-hr Max Temp (2pm): 52.0°F
2014-04-17 12:56 49 28 44 44 70° 12 - 30.63 30.64 10 CLR None
2014-04-17 11:56 48 29 41 47 100° 13 21 30.65 30.66 10 CLR None
2014-04-17 10:56 45 26 39 47 110° 13 - 30.67 30.68 10 CLR None
2014-04-17 09:56 42 25 37 50 100° 9 - 30.67 30.68 10 CLR None
2014-04-17 08:56 40 22 32 48 100° 14 - 30.66 30.67 10 CLR None
2014-04-17 07:56 36 20 30 51 80° 8 - 30.65 30.66 10 CLR 6-hr Min Temp (8am): 32.0°F
6-hr Max Temp (8am): 36.0°F
2014-04-17 06:56 32 20 26 60 90° 6 - 30.63 30.64 10 CLR None
2014-04-17 05:56 33 19 28 55 90° 6 - 30.60 30.61 10 CLR None
2014-04-17 04:56 34 19 27 53 90° 8 - 30.58 30.59 10 CLR None
2014-04-17 03:56 35 19 29 51 70° 7 - 30.58 30.59 10 CLR None
2014-04-17 02:56 35 19 30 51 80° 6 - 30.57 30.59 10 CLR None
2014-04-17 01:56 36 19 30 49 100° 7 - 30.58 30.59 10 CLR 6-hr Min Temp (2am): 34.0°F
6-hr Max Temp (2am): 44.1°F

Support USWX by starting your Amazon purchase here.